sensor_id;sensor_type;location;lat;lon;timestamp;P1;durP1;ratioP1;P2;durP2;ratioP2
15818;SDS011;8010;53.986;12.106;2022-09-29T00:01:29;10.40;;;6.50;;
15818;SDS011;8010;53.986;12.106;2022-09-29T00:03:55;9.27;;;5.97;;
15818;SDS011;8010;53.986;12.106;2022-09-29T00:06:21;10.13;;;5.67;;
15818;SDS011;8010;53.986;12.106;2022-09-29T00:08:46;9.60;;;5.80;;
15818;SDS011;8010;53.986;12.106;2022-09-29T00:11:13;11.00;;;6.10;;
15818;SDS011;8010;53.986;12.106;2022-09-29T00:13:40;9.30;;;5.90;;
15818;SDS011;8010;53.986;12.106;2022-09-29T00:16:06;8.60;;;6.10;;
15818;SDS011;8010;53.986;12.106;2022-09-29T00:18:33;11.63;;;5.87;;
15818;SDS011;8010;53.986;12.106;2022-09-29T00:21:00;9.13;;;6.37;;
15818;SDS011;8010;53.986;12.106;2022-09-29T00:23:34;9.77;;;5.73;;
15818;SDS011;8010;53.986;12.106;2022-09-29T00:26:13;9.80;;;6.20;;
15818;SDS011;8010;53.986;12.106;2022-09-29T00:29:00;8.63;;;6.17;;
15818;SDS011;8010;53.986;12.106;2022-09-29T00:31:30;9.70;;;6.43;;
15818;SDS011;8010;53.986;12.106;2022-09-29T00:33:57;8.73;;;6.20;;
15818;SDS011;8010;53.986;12.106;2022-09-29T00:36:23;9.67;;;6.27;;
15818;SDS011;8010;53.986;12.106;2022-09-29T00:38:53;12.40;;;7.13;;
15818;SDS011;8010;53.986;12.106;2022-09-29T00:41:21;10.57;;;6.80;;
15818;SDS011;8010;53.986;12.106;2022-09-29T00:43:50;8.73;;;5.50;;
15818;SDS011;8010;53.986;12.106;2022-09-29T00:46:16;9.47;;;6.20;;
15818;SDS011;8010;53.986;12.106;2022-09-29T00:48:47;11.00;;;6.70;;
15818;SDS011;8010;53.986;12.106;2022-09-29T00:51:14;11.27;;;7.03;;
15818;SDS011;8010;53.986;12.106;2022-09-29T00:53:41;10.10;;;5.97;;
15818;SDS011;8010;53.986;12.106;2022-09-29T00:56:09;10.83;;;6.73;;
15818;SDS011;8010;53.986;12.106;2022-09-29T00:58:48;11.33;;;7.03;;
15818;SDS011;8010;53.986;12.106;2022-09-29T01:01:20;11.27;;;7.00;;
15818;SDS011;8010;53.986;12.106;2022-09-29T01:03:47;13.40;;;7.43;;
15818;SDS011;8010;53.986;12.106;2022-09-29T01:06:24;11.73;;;6.60;;
15818;SDS011;8010;53.986;12.106;2022-09-29T01:08:59;9.40;;;6.37;;
15818;SDS011;8010;53.986;12.106;2022-09-29T01:11:28;13.23;;;7.27;;
15818;SDS011;8010;53.986;12.106;2022-09-29T01:13:54;13.60;;;7.73;;
15818;SDS011;8010;53.986;12.106;2022-09-29T01:16:25;9.60;;;6.80;;
15818;SDS011;8010;53.986;12.106;2022-09-29T01:18:51;12.47;;;7.67;;
15818;SDS011;8010;53.986;12.106;2022-09-29T01:27:01;14.57;;;7.20;;
15818;SDS011;8010;53.986;12.106;2022-09-29T01:32:28;11.47;;;7.23;;
15818;SDS011;8010;53.986;12.106;2022-09-29T01:35:08;11.40;;;6.97;;
15818;SDS011;8010;53.986;12.106;2022-09-29T01:40:15;11.67;;;7.00;;
15818;SDS011;8010;53.986;12.106;2022-09-29T01:42:51;13.60;;;8.00;;
15818;SDS011;8010;53.986;12.106;2022-09-29T01:45:31;11.73;;;7.43;;
15818;SDS011;8010;53.986;12.106;2022-09-29T01:48:03;13.70;;;8.50;;
15818;SDS011;8010;53.986;12.106;2022-09-29T01:50:41;12.23;;;7.20;;
15818;SDS011;8010;53.986;12.106;2022-09-29T01:53:15;13.77;;;9.00;;
15818;SDS011;8010;53.986;12.106;2022-09-29T01:55:48;17.13;;;8.37;;
15818;SDS011;8010;53.986;12.106;2022-09-29T01:58:18;13.97;;;8.40;;
15818;SDS011;8010;53.986;12.106;2022-09-29T02:00:52;15.30;;;8.80;;
15818;SDS011;8010;53.986;12.106;2022-09-29T02:03:28;14.43;;;8.57;;
15818;SDS011;8010;53.986;12.106;2022-09-29T02:06:01;17.20;;;9.70;;
15818;SDS011;8010;53.986;12.106;2022-09-29T02:08:42;17.33;;;8.90;;
15818;SDS011;8010;53.986;12.106;2022-09-29T02:11:17;18.23;;;9.77;;
15818;SDS011;8010;53.986;12.106;2022-09-29T02:16:14;18.13;;;9.87;;
15818;SDS011;8010;53.986;12.106;2022-09-29T02:18:50;18.20;;;10.70;;
15818;SDS011;8010;53.986;12.106;2022-09-29T02:21:18;20.27;;;10.50;;
15818;SDS011;8010;53.986;12.106;2022-09-29T02:23:45;19.00;;;10.23;;
15818;SDS011;8010;53.986;12.106;2022-09-29T02:26:11;16.33;;;10.20;;
15818;SDS011;8010;53.986;12.106;2022-09-29T02:28:38;22.10;;;11.87;;
15818;SDS011;8010;53.986;12.106;2022-09-29T02:31:04;19.70;;;11.50;;
15818;SDS011;8010;53.986;12.106;2022-09-29T02:33:30;20.47;;;11.10;;
15818;SDS011;8010;53.986;12.106;2022-09-29T02:36:16;23.67;;;11.60;;
15818;SDS011;8010;53.986;12.106;2022-09-29T02:39:04;23.97;;;11.57;;
15818;SDS011;8010;53.986;12.106;2022-09-29T02:41:55;22.40;;;11.03;;
15818;SDS011;8010;53.986;12.106;2022-09-29T02:47:44;20.83;;;11.67;;
15818;SDS011;8010;53.986;12.106;2022-09-29T02:50:20;23.80;;;12.03;;
15818;SDS011;8010;53.986;12.106;2022-09-29T02:56:06;22.93;;;12.57;;
15818;SDS011;8010;53.986;12.106;2022-09-29T02:59:00;21.03;;;10.83;;
15818;SDS011;8010;53.986;12.106;2022-09-29T03:02:02;26.30;;;12.33;;
15818;SDS011;8010;53.986;12.106;2022-09-29T03:04:27;21.87;;;12.80;;
15818;SDS011;8010;53.986;12.106;2022-09-29T03:06:53;19.77;;;11.77;;
15818;SDS011;8010;53.986;12.106;2022-09-29T03:09:19;24.00;;;13.67;;
15818;SDS011;8010;53.986;12.106;2022-09-29T03:11:45;21.23;;;12.83;;
15818;SDS011;8010;53.986;12.106;2022-09-29T03:14:11;22.13;;;12.50;;
15818;SDS011;8010;53.986;12.106;2022-09-29T03:16:37;21.67;;;12.40;;
15818;SDS011;8010;53.986;12.106;2022-09-29T03:19:03;16.27;;;9.30;;
15818;SDS011;8010;53.986;12.106;2022-09-29T03:21:29;15.30;;;8.33;;
15818;SDS011;8010;53.986;12.106;2022-09-29T03:23:55;13.40;;;8.20;;
15818;SDS011;8010;53.986;12.106;2022-09-29T03:26:21;13.83;;;8.27;;
15818;SDS011;8010;53.986;12.106;2022-09-29T03:28:48;12.20;;;8.17;;
15818;SDS011;8010;53.986;12.106;2022-09-29T03:31:16;14.73;;;8.20;;
15818;SDS011;8010;53.986;12.106;2022-09-29T03:33:42;11.83;;;7.70;;
15818;SDS011;8010;53.986;12.106;2022-09-29T03:36:08;13.57;;;8.47;;
15818;SDS011;8010;53.986;12.106;2022-09-29T03:38:35;12.83;;;7.73;;
15818;SDS011;8010;53.986;12.106;2022-09-29T03:41:01;15.27;;;8.43;;
15818;SDS011;8010;53.986;12.106;2022-09-29T03:43:26;16.73;;;8.90;;
15818;SDS011;8010;53.986;12.106;2022-09-29T03:45:53;13.63;;;7.53;;
15818;SDS011;8010;53.986;12.106;2022-09-29T03:48:20;14.70;;;8.27;;
15818;SDS011;8010;53.986;12.106;2022-09-29T03:50:46;13.47;;;8.50;;
15818;SDS011;8010;53.986;12.106;2022-09-29T03:53:14;17.83;;;9.13;;
15818;SDS011;8010;53.986;12.106;2022-09-29T03:55:40;12.23;;;8.30;;
15818;SDS011;8010;53.986;12.106;2022-09-29T03:58:09;16.33;;;9.60;;
15818;SDS011;8010;53.986;12.106;2022-09-29T04:00:35;16.57;;;8.37;;
15818;SDS011;8010;53.986;12.106;2022-09-29T04:03:00;15.87;;;9.33;;
15818;SDS011;8010;53.986;12.106;2022-09-29T04:05:26;14.77;;;8.53;;
15818;SDS011;8010;53.986;12.106;2022-09-29T04:07:53;16.20;;;9.30;;
15818;SDS011;8010;53.986;12.106;2022-09-29T04:10:19;14.10;;;8.90;;
15818;SDS011;8010;53.986;12.106;2022-09-29T04:12:44;14.93;;;9.13;;
15818;SDS011;8010;53.986;12.106;2022-09-29T04:15:10;17.20;;;8.80;;
15818;SDS011;8010;53.986;12.106;2022-09-29T04:17:35;15.03;;;9.43;;
15818;SDS011;8010;53.986;12.106;2022-09-29T04:20:01;15.47;;;8.70;;
15818;SDS011;8010;53.986;12.106;2022-09-29T04:22:26;19.43;;;10.20;;
15818;SDS011;8010;53.986;12.106;2022-09-29T04:24:52;16.30;;;9.60;;
15818;SDS011;8010;53.986;12.106;2022-09-29T04:27:17;16.73;;;8.83;;
15818;SDS011;8010;53.986;12.106;2022-09-29T04:29:43;15.50;;;8.87;;
15818;SDS011;8010;53.986;12.106;2022-09-29T04:32:09;15.13;;;9.33;;
15818;SDS011;8010;53.986;12.106;2022-09-29T04:34:35;16.87;;;9.60;;
15818;SDS011;8010;53.986;12.106;2022-09-29T04:37:00;15.10;;;8.60;;
15818;SDS011;8010;53.986;12.106;2022-09-29T04:39:26;15.60;;;9.07;;
15818;SDS011;8010;53.986;12.106;2022-09-29T04:41:52;16.40;;;9.90;;
15818;SDS011;8010;53.986;12.106;2022-09-29T04:44:17;15.07;;;9.17;;
15818;SDS011;8010;53.986;12.106;2022-09-29T04:46:49;15.53;;;9.50;;
15818;SDS011;8010;53.986;12.106;2022-09-29T04:49:15;16.60;;;8.83;;
15818;SDS011;8010;53.986;12.106;2022-09-29T04:51:44;17.30;;;10.17;;
15818;SDS011;8010;53.986;12.106;2022-09-29T04:54:10;21.90;;;10.23;;
15818;SDS011;8010;53.986;12.106;2022-09-29T04:56:36;15.97;;;9.87;;
15818;SDS011;8010;53.986;12.106;2022-09-29T04:59:01;19.00;;;10.30;;
15818;SDS011;8010;53.986;12.106;2022-09-29T05:01:27;19.07;;;10.30;;
15818;SDS011;8010;53.986;12.106;2022-09-29T05:03:54;19.33;;;10.90;;
15818;SDS011;8010;53.986;12.106;2022-09-29T05:06:19;21.93;;;11.10;;
15818;SDS011;8010;53.986;12.106;2022-09-29T05:08:45;21.90;;;12.83;;
15818;SDS011;8010;53.986;12.106;2022-09-29T05:11:10;22.03;;;12.97;;
15818;SDS011;8010;53.986;12.106;2022-09-29T05:13:36;21.97;;;11.93;;
15818;SDS011;8010;53.986;12.106;2022-09-29T05:16:02;21.37;;;12.23;;
15818;SDS011;8010;53.986;12.106;2022-09-29T05:18:28;21.53;;;11.53;;
15818;SDS011;8010;53.986;12.106;2022-09-29T05:20:54;23.67;;;12.00;;
15818;SDS011;8010;53.986;12.106;2022-09-29T05:23:20;21.27;;;11.67;;
15818;SDS011;8010;53.986;12.106;2022-09-29T05:25:46;23.60;;;11.60;;
15818;SDS011;8010;53.986;12.106;2022-09-29T05:28:12;22.37;;;11.83;;
15818;SDS011;8010;53.986;12.106;2022-09-29T05:30:41;23.47;;;12.50;;
15818;SDS011;8010;53.986;12.106;2022-09-29T05:33:07;20.10;;;11.53;;
15818;SDS011;8010;53.986;12.106;2022-09-29T05:35:33;24.07;;;12.33;;
15818;SDS011;8010;53.986;12.106;2022-09-29T05:37:59;23.17;;;11.77;;
15818;SDS011;8010;53.986;12.106;2022-09-29T05:40:24;21.10;;;11.80;;
15818;SDS011;8010;53.986;12.106;2022-09-29T05:42:51;24.70;;;11.47;;
15818;SDS011;8010;53.986;12.106;2022-09-29T05:45:17;21.70;;;11.80;;
15818;SDS011;8010;53.986;12.106;2022-09-29T05:47:43;20.40;;;11.87;;
15818;SDS011;8010;53.986;12.106;2022-09-29T05:50:10;22.83;;;12.43;;
15818;SDS011;8010;53.986;12.106;2022-09-29T05:52:36;21.17;;;11.77;;
15818;SDS011;8010;53.986;12.106;2022-09-29T05:55:02;24.40;;;12.50;;
15818;SDS011;8010;53.986;12.106;2022-09-29T05:57:28;23.23;;;11.83;;
15818;SDS011;8010;53.986;12.106;2022-09-29T05:59:54;21.57;;;12.10;;
15818;SDS011;8010;53.986;12.106;2022-09-29T06:02:20;25.17;;;12.73;;
15818;SDS011;8010;53.986;12.106;2022-09-29T06:04:46;20.90;;;12.30;;
15818;SDS011;8010;53.986;12.106;2022-09-29T06:07:11;26.03;;;12.27;;
15818;SDS011;8010;53.986;12.106;2022-09-29T06:09:37;24.77;;;12.90;;
15818;SDS011;8010;53.986;12.106;2022-09-29T06:12:02;24.20;;;12.37;;
15818;SDS011;8010;53.986;12.106;2022-09-29T06:14:29;23.10;;;12.47;;
15818;SDS011;8010;53.986;12.106;2022-09-29T06:16:55;21.83;;;12.10;;
15818;SDS011;8010;53.986;12.106;2022-09-29T06:19:20;24.40;;;13.03;;
15818;SDS011;8010;53.986;12.106;2022-09-29T06:21:46;27.33;;;15.47;;
15818;SDS011;8010;53.986;12.106;2022-09-29T06:24:11;23.17;;;13.43;;
15818;SDS011;8010;53.986;12.106;2022-09-29T06:26:37;20.63;;;12.63;;
15818;SDS011;8010;53.986;12.106;2022-09-29T06:29:03;21.73;;;12.63;;
15818;SDS011;8010;53.986;12.106;2022-09-29T06:31:29;20.10;;;11.07;;
15818;SDS011;8010;53.986;12.106;2022-09-29T06:33:56;22.77;;;11.57;;
15818;SDS011;8010;53.986;12.106;2022-09-29T06:36:24;21.10;;;10.80;;
15818;SDS011;8010;53.986;12.106;2022-09-29T06:39:13;24.07;;;12.00;;
15818;SDS011;8010;53.986;12.106;2022-09-29T06:41:40;18.47;;;11.23;;
15818;SDS011;8010;53.986;12.106;2022-09-29T06:44:08;21.47;;;11.77;;
15818;SDS011;8010;53.986;12.106;2022-09-29T06:46:34;19.53;;;12.27;;
15818;SDS011;8010;53.986;12.106;2022-09-29T06:49:00;22.07;;;11.33;;
15818;SDS011;8010;53.986;12.106;2022-09-29T06:51:25;18.30;;;10.80;;
15818;SDS011;8010;53.986;12.106;2022-09-29T06:53:51;21.83;;;12.43;;
15818;SDS011;8010;53.986;12.106;2022-09-29T06:56:17;24.23;;;11.97;;
15818;SDS011;8010;53.986;12.106;2022-09-29T06:58:44;20.43;;;11.57;;
15818;SDS011;8010;53.986;12.106;2022-09-29T07:01:10;22.47;;;12.50;;
15818;SDS011;8010;53.986;12.106;2022-09-29T07:03:36;19.13;;;11.00;;
15818;SDS011;8010;53.986;12.106;2022-09-29T07:06:03;22.37;;;11.87;;
15818;SDS011;8010;53.986;12.106;2022-09-29T07:08:29;21.00;;;11.63;;
15818;SDS011;8010;53.986;12.106;2022-09-29T07:10:55;19.70;;;11.70;;
15818;SDS011;8010;53.986;12.106;2022-09-29T07:13:21;20.37;;;12.03;;
15818;SDS011;8010;53.986;12.106;2022-09-29T07:15:47;18.00;;;11.43;;
15818;SDS011;8010;53.986;12.106;2022-09-29T07:18:12;17.37;;;11.03;;
15818;SDS011;8010;53.986;12.106;2022-09-29T07:20:38;18.60;;;11.20;;
15818;SDS011;8010;53.986;12.106;2022-09-29T07:23:04;16.43;;;10.60;;
15818;SDS011;8010;53.986;12.106;2022-09-29T07:25:31;19.10;;;11.53;;
15818;SDS011;8010;53.986;12.106;2022-09-29T07:27:58;23.93;;;11.83;;
15818;SDS011;8010;53.986;12.106;2022-09-29T07:30:25;16.80;;;10.00;;
15818;SDS011;8010;53.986;12.106;2022-09-29T07:32:52;20.83;;;10.63;;
15818;SDS011;8010;53.986;12.106;2022-09-29T07:35:19;19.63;;;10.77;;
15818;SDS011;8010;53.986;12.106;2022-09-29T07:37:51;17.83;;;10.57;;
15818;SDS011;8010;53.986;12.106;2022-09-29T07:40:21;15.40;;;9.13;;
15818;SDS011;8010;53.986;12.106;2022-09-29T07:42:47;15.40;;;9.73;;
15818;SDS011;8010;53.986;12.106;2022-09-29T07:45:14;16.27;;;9.83;;
15818;SDS011;8010;53.986;12.106;2022-09-29T07:47:40;14.60;;;10.20;;
15818;SDS011;8010;53.986;12.106;2022-09-29T07:50:06;16.97;;;10.17;;
15818;SDS011;8010;53.986;12.106;2022-09-29T07:52:32;16.77;;;9.50;;
15818;SDS011;8010;53.986;12.106;2022-09-29T07:54:58;14.73;;;9.10;;
15818;SDS011;8010;53.986;12.106;2022-09-29T07:57:23;16.87;;;9.50;;
15818;SDS011;8010;53.986;12.106;2022-09-29T07:59:49;16.37;;;9.73;;
15818;SDS011;8010;53.986;12.106;2022-09-29T08:02:14;15.50;;;9.77;;
15818;SDS011;8010;53.986;12.106;2022-09-29T08:04:41;15.50;;;9.57;;
15818;SDS011;8010;53.986;12.106;2022-09-29T08:07:08;15.33;;;10.03;;
15818;SDS011;8010;53.986;12.106;2022-09-29T08:09:33;14.17;;;9.60;;
15818;SDS011;8010;53.986;12.106;2022-09-29T08:12:00;17.53;;;9.50;;
15818;SDS011;8010;53.986;12.106;2022-09-29T08:14:25;14.70;;;9.60;;
15818;SDS011;8010;53.986;12.106;2022-09-29T08:16:51;14.30;;;9.50;;
15818;SDS011;8010;53.986;12.106;2022-09-29T08:19:16;14.43;;;9.30;;
15818;SDS011;8010;53.986;12.106;2022-09-29T08:21:42;13.53;;;9.27;;
15818;SDS011;8010;53.986;12.106;2022-09-29T08:24:08;14.00;;;8.53;;
15818;SDS011;8010;53.986;12.106;2022-09-29T08:26:37;13.83;;;9.60;;
15818;SDS011;8010;53.986;12.106;2022-09-29T08:29:04;15.93;;;10.10;;
15818;SDS011;8010;53.986;12.106;2022-09-29T08:31:31;16.93;;;10.17;;
15818;SDS011;8010;53.986;12.106;2022-09-29T08:33:57;15.07;;;9.67;;
15818;SDS011;8010;53.986;12.106;2022-09-29T08:36:23;14.00;;;9.40;;
15818;SDS011;8010;53.986;12.106;2022-09-29T08:38:50;16.33;;;9.87;;
15818;SDS011;8010;53.986;12.106;2022-09-29T08:43:53;14.57;;;9.33;;
15818;SDS011;8010;53.986;12.106;2022-09-29T08:46:30;14.30;;;9.20;;
15818;SDS011;8010;53.986;12.106;2022-09-29T08:49:17;13.07;;;8.73;;
15818;SDS011;8010;53.986;12.106;2022-09-29T08:51:49;11.67;;;8.00;;
15818;SDS011;8010;53.986;12.106;2022-09-29T08:54:29;14.07;;;9.40;;
15818;SDS011;8010;53.986;12.106;2022-09-29T08:56:57;11.50;;;8.43;;
15818;SDS011;8010;53.986;12.106;2022-09-29T08:59:23;10.57;;;7.67;;
15818;SDS011;8010;53.986;12.106;2022-09-29T09:01:58;17.10;;;8.90;;
15818;SDS011;8010;53.986;12.106;2022-09-29T09:15:22;13.37;;;9.07;;
15818;SDS011;8010;53.986;12.106;2022-09-29T09:18:10;14.50;;;8.97;;
15818;SDS011;8010;53.986;12.106;2022-09-29T09:26:37;13.73;;;9.20;;
15818;SDS011;8010;53.986;12.106;2022-09-29T09:29:28;12.07;;;7.50;;
15818;SDS011;8010;53.986;12.106;2022-09-29T09:32:15;11.77;;;8.20;;
15818;SDS011;8010;53.986;12.106;2022-09-29T09:34:53;13.50;;;8.10;;
15818;SDS011;8010;53.986;12.106;2022-09-29T09:37:22;12.07;;;8.20;;
15818;SDS011;8010;53.986;12.106;2022-09-29T09:39:55;10.90;;;7.97;;
15818;SDS011;8010;53.986;12.106;2022-09-29T09:42:23;10.73;;;7.70;;
15818;SDS011;8010;53.986;12.106;2022-09-29T09:45:16;10.30;;;7.60;;
15818;SDS011;8010;53.986;12.106;2022-09-29T09:47:56;11.60;;;7.77;;
15818;SDS011;8010;53.986;12.106;2022-09-29T09:50:27;10.77;;;7.50;;
15818;SDS011;8010;53.986;12.106;2022-09-29T09:52:58;11.10;;;7.63;;
15818;SDS011;8010;53.986;12.106;2022-09-29T09:55:29;9.80;;;7.10;;
15818;SDS011;8010;53.986;12.106;2022-09-29T10:03:05;9.23;;;7.07;;
15818;SDS011;8010;53.986;12.106;2022-09-29T10:05:38;12.60;;;6.70;;
15818;SDS011;8010;53.986;12.106;2022-09-29T10:08:28;9.73;;;5.80;;
15818;SDS011;8010;53.986;12.106;2022-09-29T10:10:54;7.87;;;6.13;;
15818;SDS011;8010;53.986;12.106;2022-09-29T10:13:21;7.83;;;5.83;;
15818;SDS011;8010;53.986;12.106;2022-09-29T10:18:35;9.43;;;6.57;;
15818;SDS011;8010;53.986;12.106;2022-09-29T10:24:04;10.10;;;6.43;;
15818;SDS011;8010;53.986;12.106;2022-09-29T10:26:43;8.40;;;6.10;;
15818;SDS011;8010;53.986;12.106;2022-09-29T10:29:31;7.83;;;5.73;;
15818;SDS011;8010;53.986;12.106;2022-09-29T10:32:09;6.50;;;5.27;;
15818;SDS011;8010;53.986;12.106;2022-09-29T10:34:42;9.40;;;5.07;;
15818;SDS011;8010;53.986;12.106;2022-09-29T10:37:18;8.30;;;5.33;;
15818;SDS011;8010;53.986;12.106;2022-09-29T10:39:45;6.10;;;4.20;;
15818;SDS011;8010;53.986;12.106;2022-09-29T10:44:40;6.53;;;4.43;;
15818;SDS011;8010;53.986;12.106;2022-09-29T10:47:06;5.60;;;4.30;;
15818;SDS011;8010;53.986;12.106;2022-09-29T10:49:39;5.70;;;4.40;;
15818;SDS011;8010;53.986;12.106;2022-09-29T10:52:05;5.77;;;3.30;;
15818;SDS011;8010;53.986;12.106;2022-09-29T10:54:56;4.47;;;3.20;;
15818;SDS011;8010;53.986;12.106;2022-09-29T10:57:24;4.43;;;3.00;;
15818;SDS011;8010;53.986;12.106;2022-09-29T10:59:52;3.00;;;2.40;;
15818;SDS011;8010;53.986;12.106;2022-09-29T11:02:20;4.10;;;2.60;;
15818;SDS011;8010;53.986;12.106;2022-09-29T11:04:59;2.70;;;2.40;;
15818;SDS011;8010;53.986;12.106;2022-09-29T11:07:27;2.80;;;2.47;;
15818;SDS011;8010;53.986;12.106;2022-09-29T11:09:55;3.80;;;2.43;;
15818;SDS011;8010;53.986;12.106;2022-09-29T11:12:25;5.17;;;2.50;;
15818;SDS011;8010;53.986;12.106;2022-09-29T11:14:59;4.50;;;3.33;;
15818;SDS011;8010;53.986;12.106;2022-09-29T11:19:54;4.27;;;3.13;;
15818;SDS011;8010;53.986;12.106;2022-09-29T11:27:52;3.53;;;3.13;;
15818;SDS011;8010;53.986;12.106;2022-09-29T11:30:48;4.03;;;2.83;;
15818;SDS011;8010;53.986;12.106;2022-09-29T11:45:10;6.23;;;3.30;;
15818;SDS011;8010;53.986;12.106;2022-09-29T11:55:52;3.70;;;2.77;;
15818;SDS011;8010;53.986;12.106;2022-09-29T11:58:42;3.60;;;2.67;;
15818;SDS011;8010;53.986;12.106;2022-09-29T12:01:28;3.40;;;2.73;;
15818;SDS011;8010;53.986;12.106;2022-09-29T12:06:55;3.80;;;3.40;;
15818;SDS011;8010;53.986;12.106;2022-09-29T12:09:32;4.67;;;3.13;;
15818;SDS011;8010;53.986;12.106;2022-09-29T12:17:39;4.83;;;3.67;;
15818;SDS011;8010;53.986;12.106;2022-09-29T12:22:51;3.00;;;2.70;;
15818;SDS011;8010;53.986;12.106;2022-09-29T12:25:21;4.67;;;3.03;;
15818;SDS011;8010;53.986;12.106;2022-09-29T12:27:50;4.97;;;3.17;;
15818;SDS011;8010;53.986;12.106;2022-09-29T12:30:22;3.93;;;2.70;;
15818;SDS011;8010;53.986;12.106;2022-09-29T12:32:56;3.00;;;2.53;;
15818;SDS011;8010;53.986;12.106;2022-09-29T12:35:44;2.80;;;2.33;;
15818;SDS011;8010;53.986;12.106;2022-09-29T12:38:24;3.43;;;2.97;;
15818;SDS011;8010;53.986;12.106;2022-09-29T12:43:40;4.00;;;3.20;;
15818;SDS011;8010;53.986;12.106;2022-09-29T12:46:18;3.73;;;2.97;;
15818;SDS011;8010;53.986;12.106;2022-09-29T12:51:53;3.63;;;2.37;;
15818;SDS011;8010;53.986;12.106;2022-09-29T12:54:23;3.10;;;1.73;;
15818;SDS011;8010;53.986;12.106;2022-09-29T12:57:10;3.60;;;1.43;;
15818;SDS011;8010;53.986;12.106;2022-09-29T12:59:43;2.17;;;1.87;;
15818;SDS011;8010;53.986;12.106;2022-09-29T13:10:37;3.13;;;2.13;;
15818;SDS011;8010;53.986;12.106;2022-09-29T13:19:04;1.67;;;1.47;;
15818;SDS011;8010;53.986;12.106;2022-09-29T13:30:01;2.10;;;1.90;;
15818;SDS011;8010;53.986;12.106;2022-09-29T13:32:40;3.37;;;2.10;;
15818;SDS011;8010;53.986;12.106;2022-09-29T13:35:12;3.63;;;2.43;;
15818;SDS011;8010;53.986;12.106;2022-09-29T13:37:47;3.77;;;2.70;;
15818;SDS011;8010;53.986;12.106;2022-09-29T13:40:24;3.87;;;3.30;;
15818;SDS011;8010;53.986;12.106;2022-09-29T13:42:55;5.57;;;3.90;;
15818;SDS011;8010;53.986;12.106;2022-09-29T13:47:50;5.80;;;3.80;;
15818;SDS011;8010;53.986;12.106;2022-09-29T13:55:49;4.30;;;3.90;;
15818;SDS011;8010;53.986;12.106;2022-09-29T13:58:23;4.63;;;3.83;;
15818;SDS011;8010;53.986;12.106;2022-09-29T14:00:50;6.60;;;3.87;;
15818;SDS011;8010;53.986;12.106;2022-09-29T14:03:26;3.67;;;2.70;;
15818;SDS011;8010;53.986;12.106;2022-09-29T14:06:03;3.10;;;2.37;;
15818;SDS011;8010;53.986;12.106;2022-09-29T14:08:40;2.43;;;1.97;;
15818;SDS011;8010;53.986;12.106;2022-09-29T14:16:54;0.80;;;0.77;;
15818;SDS011;8010;53.986;12.106;2022-09-29T14:19:50;1.10;;;1.00;;
15818;SDS011;8010;53.986;12.106;2022-09-29T14:25:22;1.57;;;0.90;;
15818;SDS011;8010;53.986;12.106;2022-09-29T14:27:41;1.13;;;1.00;;
15818;SDS011;8010;53.986;12.106;2022-09-29T14:32:51;1.43;;;1.33;;
15818;SDS011;8010;53.986;12.106;2022-09-29T14:40:29;2.33;;;1.50;;
15818;SDS011;8010;53.986;12.106;2022-09-29T14:43:05;1.40;;;1.10;;
15818;SDS011;8010;53.986;12.106;2022-09-29T14:45:36;1.40;;;1.20;;
15818;SDS011;8010;53.986;12.106;2022-09-29T14:49:01;2.13;;;1.87;;
15818;SDS011;8010;53.986;12.106;2022-09-29T14:51:56;3.63;;;1.43;;
15818;SDS011;8010;53.986;12.106;2022-09-29T14:54:54;4.20;;;1.50;;
15818;SDS011;8010;53.986;12.106;2022-09-29T15:03:48;2.53;;;1.70;;
15818;SDS011;8010;53.986;12.106;2022-09-29T15:06:19;1.87;;;1.50;;
15818;SDS011;8010;53.986;12.106;2022-09-29T15:08:56;1.77;;;1.57;;
15818;SDS011;8010;53.986;12.106;2022-09-29T15:11:33;1.80;;;1.70;;
15818;SDS011;8010;53.986;12.106;2022-09-29T15:14:02;2.93;;;1.80;;
15818;SDS011;8010;53.986;12.106;2022-09-29T15:22:00;1.80;;;1.70;;
15818;SDS011;8010;53.986;12.106;2022-09-29T15:24:57;2.53;;;1.60;;
15818;SDS011;8010;53.986;12.106;2022-09-29T15:27:32;3.17;;;2.00;;
15818;SDS011;8010;53.986;12.106;2022-09-29T15:29:59;3.00;;;1.80;;
15818;SDS011;8010;53.986;12.106;2022-09-29T15:32:26;2.03;;;1.83;;
15818;SDS011;8010;53.986;12.106;2022-09-29T15:34:58;2.23;;;1.70;;
15818;SDS011;8010;53.986;12.106;2022-09-29T15:37:30;1.93;;;1.70;;
15818;SDS011;8010;53.986;12.106;2022-09-29T15:40:14;2.13;;;1.70;;
15818;SDS011;8010;53.986;12.106;2022-09-29T15:42:43;2.00;;;1.77;;
15818;SDS011;8010;53.986;12.106;2022-09-29T15:45:26;2.43;;;1.80;;
15818;SDS011;8010;53.986;12.106;2022-09-29T15:48:00;1.80;;;1.50;;
15818;SDS011;8010;53.986;12.106;2022-09-29T15:50:30;1.97;;;1.47;;
15818;SDS011;8010;53.986;12.106;2022-09-29T15:53:00;2.27;;;1.87;;
15818;SDS011;8010;53.986;12.106;2022-09-29T15:55:27;1.90;;;1.73;;
15818;SDS011;8010;53.986;12.106;2022-09-29T15:57:54;2.20;;;1.90;;
15818;SDS011;8010;53.986;12.106;2022-09-29T16:02:51;3.20;;;2.30;;
15818;SDS011;8010;53.986;12.106;2022-09-29T16:05:31;3.10;;;1.90;;
15818;SDS011;8010;53.986;12.106;2022-09-29T16:08:17;3.07;;;2.20;;
15818;SDS011;8010;53.986;12.106;2022-09-29T16:10:50;2.47;;;2.20;;
15818;SDS011;8010;53.986;12.106;2022-09-29T16:13:29;2.87;;;2.53;;
15818;SDS011;8010;53.986;12.106;2022-09-29T16:15:58;2.27;;;1.90;;
15818;SDS011;8010;53.986;12.106;2022-09-29T16:18:38;3.00;;;1.97;;
15818;SDS011;8010;53.986;12.106;2022-09-29T16:21:06;2.50;;;1.80;;
15818;SDS011;8010;53.986;12.106;2022-09-29T16:23:43;3.43;;;2.00;;
15818;SDS011;8010;53.986;12.106;2022-09-29T16:26:17;2.40;;;2.20;;
15818;SDS011;8010;53.986;12.106;2022-09-29T16:31:41;2.40;;;2.13;;
15818;SDS011;8010;53.986;12.106;2022-09-29T16:37:12;2.03;;;1.83;;
15818;SDS011;8010;53.986;12.106;2022-09-29T16:39:45;5.13;;;1.80;;
15818;SDS011;8010;53.986;12.106;2022-09-29T16:42:25;2.93;;;2.00;;
15818;SDS011;8010;53.986;12.106;2022-09-29T16:44:52;2.07;;;1.87;;
15818;SDS011;8010;53.986;12.106;2022-09-29T16:47:23;2.10;;;1.90;;
15818;SDS011;8010;53.986;12.106;2022-09-29T16:57:58;3.90;;;2.13;;
15818;SDS011;8010;53.986;12.106;2022-09-29T17:00:30;2.37;;;2.10;;
15818;SDS011;8010;53.986;12.106;2022-09-29T17:02:56;2.33;;;2.00;;
15818;SDS011;8010;53.986;12.106;2022-09-29T17:05:22;3.53;;;2.13;;
15818;SDS011;8010;53.986;12.106;2022-09-29T17:07:49;2.30;;;2.10;;
15818;SDS011;8010;53.986;12.106;2022-09-29T17:10:23;2.07;;;1.80;;
15818;SDS011;8010;53.986;12.106;2022-09-29T17:12:49;2.17;;;1.80;;
15818;SDS011;8010;53.986;12.106;2022-09-29T17:15:15;2.30;;;2.10;;
15818;SDS011;8010;53.986;12.106;2022-09-29T17:17:45;2.63;;;2.10;;
15818;SDS011;8010;53.986;12.106;2022-09-29T17:20:13;3.97;;;2.33;;
15818;SDS011;8010;53.986;12.106;2022-09-29T17:22:41;3.73;;;2.80;;
15818;SDS011;8010;53.986;12.106;2022-09-29T17:25:09;3.77;;;2.77;;
15818;SDS011;8010;53.986;12.106;2022-09-29T17:27:36;3.00;;;2.70;;
15818;SDS011;8010;53.986;12.106;2022-09-29T17:30:21;3.00;;;2.63;;
15818;SDS011;8010;53.986;12.106;2022-09-29T17:32:51;4.60;;;2.40;;
15818;SDS011;8010;53.986;12.106;2022-09-29T17:35:19;2.93;;;2.37;;
15818;SDS011;8010;53.986;12.106;2022-09-29T17:37:46;2.80;;;2.60;;
15818;SDS011;8010;53.986;12.106;2022-09-29T17:40:15;2.97;;;2.67;;
15818;SDS011;8010;53.986;12.106;2022-09-29T17:43:01;3.37;;;2.90;;
15818;SDS011;8010;53.986;12.106;2022-09-29T17:45:27;2.70;;;2.50;;
15818;SDS011;8010;53.986;12.106;2022-09-29T17:47:54;3.00;;;2.70;;
15818;SDS011;8010;53.986;12.106;2022-09-29T17:52:55;3.33;;;3.03;;